• Join FlightAware (Why Join?)
  • Login
  • US Flag 
02:38PM EDT


 

Airport Tracker/Info


-or-


 

Live Flight TrackerFlight Track Log ✈ CPT1940 ✈ 24-Oct-2013 ✈ KCPR - KBFF

Flight Track Log - Related Links

Times and Time Zones

All times are in EDT time to prevent confusion due to time zone crossing. See the CPT1940 flight status page for this flight to view local times or setup timezone preferences in your user account.

Time Position Orientation Groundspeed Altitude Reporting Facility
EDT Latitude Longitude Course Direction KTS MPH feet Rate Location/Type
09:31AM 42.9297 -106.4611 103° East 102 117 6,900  Level Denver Center
09:32AM 42.9578 -106.4333 36° Northeast 125 144 7,500 540 Climbing Denver Center
09:33AM 42.9631 -106.3900 81° East 132 152 8,000 480 Climbing Denver Center
09:34AM 42.9583 -106.3367 97° East 128 147 8,500 480 Climbing Denver Center
09:35AM 42.7855 -106.1088 113° Southeast  Level Estimated
09:35AM 42.9553 -106.2908 95° East 127 146 9,000  Level Denver Center
09:36AM 42.7746 -106.0451 103° East  Level FlightAware Approximate
09:36AM 42.9508 -106.2433 97° East 129 148 9,000  Level Denver Center
09:37AM 42.9453 -106.1794 97° East 144 166 9,000  Level Denver Center
09:38AM 42.9406 -106.1253 97° East 149 171 9,000  Level Denver Center
09:39AM 42.9358 -106.0603 96° East 152 175 9,000  Level Denver Center
09:40AM 42.9317 -106.0047 96° East 153 176 9,000  Level Denver Center
09:41AM 42.9275 -105.9492 96° East 154 177 9,000  Level Denver Center
09:42AM 42.9231 -105.8842 95° East 154 177 9,000  Level Denver Center
09:43AM 42.9178 -105.8292 97° East 154 177 9,000  Level Denver Center
09:44AM 42.9017 -105.7764 113° Southeast 155 178 9,000  Level Denver Center
09:45AM 42.8797 -105.7169 117° Southeast 156 180 9,000  Level Denver Center
09:46AM 42.8628 -105.6664 115° Southeast 155 178 9,000  Level Denver Center
09:47AM 42.8464 -105.6156 114° Southeast 154 177 9,000  Level Denver Center
09:48AM 42.8269 -105.5544 113° Southeast 155 178 9,000  Level Denver Center
09:49AM 42.8111 -105.5033 113° Southeast 155 178 9,000  Level Denver Center
09:50AM 42.7914 -105.4419 114° Southeast 156 180 9,000  Level Denver Center
09:51AM 42.7739 -105.3914 115° Southeast 156 180 9,000  Level Denver Center
09:52AM 42.7572 -105.3392 113° Southeast 156 180 9,000  Level Denver Center
09:53AM 42.7375 -105.2778 114° Southeast 158 182 9,000  Level Denver Center
09:54AM 42.7206 -105.2256 114° Southeast 158 182 9,000  Level Denver Center
09:55AM 42.7000 -105.1644 115° Southeast 158 182 9,000  Level Denver Center
09:56AM 42.6828 -105.1119 114° Southeast 159 183 9,000  Level Denver Center
09:57AM 42.6656 -105.0594 114° Southeast 159 183 9,000  Level Denver Center
09:58AM 42.6453 -104.9986 114° Southeast 159 183 9,000  Level Denver Center
09:59AM 42.6281 -104.9450 114° Southeast 161 185 9,000  Level Denver Center
10:00AM 42.6072 -104.8844 115° Southeast 160 184 9,000  Level Denver Center
10:01AM 42.5900 -104.8317 114° Southeast 160 184 9,000  Level Denver Center
10:02AM 42.5722 -104.7794 115° Southeast 159 183 9,000  Level Denver Center
10:03AM 42.5514 -104.7172 114° Southeast 162 186 9,000  Level Denver Center
10:04AM 42.5339 -104.6639 114° Southeast 163 188 9,100  Climbing Denver Center
10:05AM 42.5128 -104.6044 116° Southeast 160 184 9,100  Level Denver Center
10:06AM 42.4867 -104.5631 131° Southeast 154 177 9,100  Level Denver Center
10:07AM 42.4575 -104.5156 130° Southeast 149 171 9,100  Level Denver Center
10:08AM 42.4344 -104.4758 128° Southeast 145 167 9,100  Level Denver Center
10:09AM 42.4078 -104.4306 129° Southeast 141 162 9,100  Level Denver Center
10:10AM 42.3836 -104.3919 130° Southeast 141 162 9,100  Level Denver Center
10:11AM 42.3589 -104.3533 131° Southeast 141 162 9,100  Level Denver Center
10:12AM 42.3311 -104.3097 131° Southeast 139 160 9,100  Level Denver Center
10:13AM 42.3067 -104.2711 131° Southeast 141 162 9,100  Level Denver Center
10:14AM 42.2786 -104.2275 131° Southeast 138 159 9,100  Level Denver Center
10:15AM 42.2542 -104.1881 130° Southeast 141 162 9,100  Level Denver Center
10:17AM 42.2297 -104.1489 130° Southeast 142 163 9,100  Level Denver Center
10:18AM 42.2011 -104.1036 130° Southeast 142 163 9,100  Level Denver Center
10:19AM 42.1758 -104.0661 132° Southeast 142 163 9,100  Level Denver Center
10:20AM 42.1489 -104.0183 127° Southeast 142 163 9,100  Level Denver Center
10:21AM 42.1269 -103.9764 125° Southeast 143 165 9,100  Level Denver Center
10:22AM 42.1008 -103.9297 127° Southeast 142 163 9,100  Level Denver Center
10:23AM 42.0789 -103.8911 127° Southeast 138 159 9,100  Level Denver Center
10:24AM 42.0558 -103.8506 127° Southeast 140 161 9,100  Level Denver Center
10:25AM 42.0294 -103.8042 127° Southeast 140 161 9,100  Level Denver Center
10:26AM 42.0058 -103.7694 132° Southeast 135 155 9,100  Level Denver Center
10:27AM 42.0014 -103.8119 262° West 123 142 9,100  Level Denver Center
10:28AM 42.0253 -103.8411 318° Northwest 121 139 9,100  Level Denver Center
10:29AM 42.0447 -103.8181 41° Northeast 141 162 9,100  Level Denver Center
10:30AM 42.0189 -103.7858 137° Southeast 134 154 9,100  Level Denver Center
10:31AM 41.9978 -103.7942 196° South 132 152 9,100  Level Denver Center
10:32AM 42.0189 -103.8256 312° West 122 140 9,100  Level Denver Center
10:33AM 42.0481 -103.8411 338° Northwest 123 142 9,100  Level Denver Center
10:34AM 42.0356 -103.8028 114° Southeast 129 148 9,100 -60 Level Denver Center
10:35AM 42.0083 -103.7719 140° Southeast 133 153 9,000  Descending Denver Center
10:36AM 42.0017 -103.8039 254° West 125 144 9,100  Climbing Denver Center
10:37AM 42.0208 -103.8375 308° West 120 138 9,100  Level Denver Center
10:38AM 42.0464 -103.8728 314° West 119 137 9,100  Level Denver Center
10:39AM 42.0478 -103.8294 88° East 142 163 9,100  Level Denver Center
10:40AM 42.0192 -103.7897 134° Southeast 134 154 9,100  Level Denver Center
10:41AM 41.9925 -103.7769 160° South 131 151 9,100  Level Denver Center
10:42AM 42.0100 -103.8181 300° West 127 146 9,100  Level Denver Center
10:43AM 42.0314 -103.8503 312° West 123 142 9,100  Level Denver Center
10:44AM 42.0614 -103.8589 348° North 134 154 9,100  Level Denver Center
10:45AM 42.0444 -103.8183 119° Southeast 136 157 9,100  Level Denver Center
10:46AM 42.0147 -103.7797 136° Southeast 134 154 9,100  Level Denver Center
10:47AM 41.9933 -103.7878 196° South 135 155 9,100  Level Denver Center
10:48AM 42.0156 -103.8261 308° West 121 139 9,100  Level Denver Center
10:50AM 42.0353 -103.8589 309° West 119 137 9,100  Level Denver Center
10:51AM 42.0594 -103.8497 16° North 136 157 9,100  Level Denver Center
10:52AM 42.0331 -103.8061 129° Southeast 135 155 9,100  Level Denver Center
10:53AM 42.0078 -103.7736 136° Southeast 134 154 9,100  Level Denver Center
10:54AM 42.0003 -103.8017 250° West 128 147 9,100  Level Denver Center
10:55AM 42.0214 -103.8328 312° West 120 138 9,100  Level Denver Center
10:56AM 42.0450 -103.8700 311° West 118 136 9,100  Level Denver Center
10:57AM 42.0594 -103.8411 56° Northeast 142 163 9,100  Level Denver Center
10:58AM 42.0300 -103.8022 136° Southeast 135 155 9,100  Level Denver Center
10:59AM 42.0033 -103.7681 136° Southeast 138 159 9,100  Level Denver Center
11:00AM 42.0033 -103.8056 270° West 128 147 9,100  Level Denver Center
11:01AM 42.0242 -103.8369 312° West 120 138 9,100  Level Denver Center
11:02AM 42.0503 -103.8714 316° Northwest 119 137 9,100  Level Denver Center
11:03AM 42.0497 -103.8267 91° East 139 160 9,100  Level Denver Center
11:04AM 42.0194 -103.7889 137° Southeast 135 155 9,100  Level Denver Center
11:05AM 41.9919 -103.7817 169° South 146 168 9,100  Level Denver Center
11:06AM 42.0108 -103.8203 303° West 121 139 9,100  Level Denver Center
11:07AM 42.0319 -103.8531 311° West 120 138 9,100  Level Denver Center
11:08AM 42.0578 -103.8761 326° Northwest 122 140 9,100  Level Denver Center
11:09AM 42.0500 -103.8272 102° East 131 151 9,100  Level Denver Center
11:10AM 42.0239 -103.7906 134° Southeast 137 158 9,100  Level Denver Center
11:11AM 41.9906 -103.7717 157° South 144 166 9,100  Level Denver Center
11:12AM 42.0050 -103.8072 299° West 125 144 9,100  Level Denver Center
11:13AM 42.0297 -103.8456 311° West 122 140 9,100  Level Denver Center
11:14AM 42.0506 -103.8778 311° West 121 139 9,100  Level Denver Center
11:15AM 42.0594 -103.8381 73° East 138 159 9,100  Level Denver Center
11:16AM 42.0333 -103.8058 137° Southeast 135 155 9,100  Level Denver Center
11:17AM 42.0003 -103.7689 140° Southeast 136 157 9,100  Level Denver Center
11:18AM 42.0008 -103.8050 271° West 132 152 9,100  Level Denver Center
11:20AM 42.0256 -103.8431 311° West 123 142 9,100  Level Denver Center
11:21AM 42.0478 -103.8742 314° West 121 139 9,100  Level Denver Center
11:22AM 42.0475 -103.8261 90° East 140 161 9,100  Level Denver Center
11:23AM 42.0217 -103.7894 133° Southeast 141 162 9,100  Level Denver Center
11:24AM 41.9922 -103.7817 169° South 141 162 9,100  Level Denver Center
11:25AM 42.0100 -103.8164 305° West 127 146 9,100  Level Denver Center
11:26AM 42.0311 -103.8472 313° West 120 138 9,100  Level Denver Center
11:27AM 42.0608 -103.8556 348° North 142 163 9,100  Level Denver Center
11:28AM 42.0428 -103.8167 122° Southeast 140 161 9,100  Level Denver Center
11:29AM 42.0114 -103.7794 139° Southeast 137 158 9,100  Level Denver Center
11:30AM 41.9897 -103.7928 205° Southwest 130 150 9,100  Level Denver Center
11:31AM 42.0136 -103.8317 310° West 122 140 9,100  Level Denver Center
11:32AM 42.0350 -103.8642 312° West 121 139 9,100  Level Denver Center
11:33AM 42.0653 -103.8769 343° North 131 151 9,100  Level Denver Center
11:34AM 42.0500 -103.8350 116° Southeast 134 154 9,100  Level Denver Center
11:35AM 42.0206 -103.7908 132° Southeast 139 160 9,100  Level Denver Center
11:36AM 41.9928 -103.7800 164° South 153 176 9,100  Level Denver Center
11:37AM 42.0106 -103.8197 301° West 127 146 9,100  Level Denver Center
11:38AM 42.0325 -103.8528 312° West 124 143 9,100  Level Denver Center
11:39AM 42.0619 -103.8786 327° Northwest 135 155 9,100  Level Denver Center
11:40AM 42.0539 -103.8372 105° East 139 160 9,100  Level Denver Center
11:41AM 42.0239 -103.7944 133° Southeast 140 161 9,100  Level Denver Center
11:42AM 41.9972 -103.7606 137° Southeast 139 160 9,100  Level Denver Center
11:43AM 41.9961 -103.7964 268° West 128 147 9,100  Level Denver Center
11:44AM 42.0203 -103.8358 310° West 123 142 9,100  Level Denver Center
11:45AM 42.0417 -103.8692 311° West 122 140 9,100  Level Denver Center
11:46AM 42.0647 -103.8542 26° Northeast 138 159 9,100  Level Denver Center
11:47AM 42.0392 -103.8175 133° Southeast 139 160 9,100  Level Denver Center
11:48AM 42.0083 -103.7756 135° Southeast 140 161 9,100  Level Denver Center
11:49AM 41.9906 -103.7961 221° Southwest 138 159 9,100  Level Denver Center
11:51AM 42.0150 -103.8369 309° West 129 148 9,100  Level Denver Center
11:52AM 42.0389 -103.8728 312° West 131 151 9,100  Level Denver Center
11:53AM 42.0711 -103.9181 314° West 143 165 9,100  Level Denver Center
11:54AM 42.0958 -103.9561 311° West 143 165 9,100  Level Denver Center
11:55AM 42.1244 -104.0006 311° West 142 163 9,100  Level Denver Center
11:56AM 42.1489 -104.0394 310° West 142 163 9,100  Level Denver Center
11:57AM 42.1761 -104.0819 311° West 138 159 9,100  Level Denver Center
11:58AM 42.2011 -104.1197 312° West 138 159 9,100  Level Denver Center
11:59AM 42.2308 -104.1642 312° West 141 162 9,100  Level Denver Center
12:00PM 42.2561 -104.2019 312° West 142 163 9,100  Level Denver Center
12:01PM 42.2794 -104.2389 310° West 138 159 9,100  Level Denver Center
12:02PM 42.3083 -104.2842 311° West 139 160 9,100  Level Denver Center
12:03PM 42.3333 -104.3219 312° West 141 162 9,100  Level Denver Center
12:04PM 42.3614 -104.3664 311° West 139 160 9,100  Level Denver Center
12:05PM 42.3861 -104.4047 311° West 140 161 9,100  Level Denver Center
12:06PM 42.4139 -104.4489 310° West 139 160 9,100  Level Denver Center
12:07PM 42.4389 -104.4875 311° West 140 161 9,100  Level Denver Center
12:08PM 42.4669 -104.5319 311° West 139 160 9,100  Level Denver Center
12:09PM 42.4919 -104.5703 311° West 140 161 9,100  Level Denver Center
12:10PM 42.5211 -104.6164 294° West 142 163 9,100  Level Denver Center
12:11PM 42.5260 -104.6286 294° West  Level FlightAware Approximate
12:11PM 42.5367 -104.6647 294° West 144 166 9,100  Level Denver Center
12:12PM 42.5528 -104.7131 294° West 145 167 9,000 -60 Descending Denver Center
12:13PM 42.5717 -104.7683 295° West 145 167 9,000  Level Denver Center
12:14PM 42.5875 -104.8161 294° West 145 167 9,000  Level Denver Center
12:15PM 42.6058 -104.8711 294° West 144 166 9,000  Level Denver Center
12:16PM 42.6219 -104.9200 294° West 145 167 9,000  Level Denver Center
12:17PM 42.6406 -104.9736 295° West 143 165 9,000  Level Denver Center
12:18PM 42.6561 -105.0214 294° West 144 166 9,000  Level Denver Center
12:19PM 42.6719 -105.0711 293° West 146 168 9,000  Level Denver Center
12:21PM 42.6900 -105.1278 293° West 147 169 9,000  Level Denver Center
12:22PM 42.7058 -105.1744 295° West 145 167 9,000  Level Denver Center
12:23PM 42.7244 -105.2292 295° West 143 165 9,000  Level Denver Center
12:24PM 42.7403 -105.2792 293° West 147 169 9,000  Level Denver Center
12:25PM 42.7581 -105.3339 294° West 145 167 9,000  Level Denver Center
12:26PM 42.7742 -105.3828 294° West 145 167 9,000  Level Denver Center
12:27PM 42.7928 -105.4392 294° West 146 168 9,000  Level Denver Center
12:28PM 42.8083 -105.4878 294° West 147 169 9,000  Level Denver Center
12:29PM 42.8267 -105.5450 294° West 147 169 9,000  Level Denver Center
12:30PM 42.8425 -105.5942 294° West 147 169 9,000  Level Denver Center
12:31PM 42.8597 -105.6514 292° West 147 169 9,000  Level Denver Center
12:32PM 42.8647 -105.7039 277° West 146 168 9,000  Level Denver Center
12:33PM 42.8694 -105.7669 276° West 147 169 9,000  Level Denver Center
12:34PM 42.8753 -105.8192 279° West 147 169 9,000  Level Denver Center
12:35PM 42.8819 -105.8817 278° West 148 170 9,000  Level Denver Center
12:36PM 42.8875 -105.9344 278° West 148 170 9,000  Level Denver Center
12:37PM 42.8939 -105.9967 278° West 148 170 9,000  Level Denver Center
12:38PM 42.8989 -106.0500 277° West 147 169 9,000 -300 Level Denver Center
12:39PM 42.9039 -106.1033 277° West 148 170 8,400 -720 Descending Denver Center
12:40PM 42.9108 -106.1711 278° West 156 180 7,600 -540 Descending Denver Center
12:41PM 42.9158 -106.2239 277° West 153 176 7,400 -300 Descending Denver Center
12:42PM 42.9142 -106.2861 268° West 147 169 7,100 -420 Descending Denver Center
12:43PM 42.9114 -106.3442 266° West 154 177 6,600 -540 Descending Denver Center
12:45PM 42.9000 -106.4127 270° West  Level FlightAware Approximate